sensor_id;sensor_type;location;lat;lon;timestamp;P1;durP1;ratioP1;P2;durP2;ratioP2
7997;SDS011;4044;49.814;7.828;2024-03-02T00:02:21;9.93;;;8.10;;
7997;SDS011;4044;49.814;7.828;2024-03-02T00:04:47;8.50;;;7.60;;
7997;SDS011;4044;49.814;7.828;2024-03-02T00:07:13;8.13;;;7.30;;
7997;SDS011;4044;49.814;7.828;2024-03-02T00:09:39;9.57;;;7.87;;
7997;SDS011;4044;49.814;7.828;2024-03-02T00:12:05;8.57;;;7.63;;
7997;SDS011;4044;49.814;7.828;2024-03-02T00:14:31;8.47;;;7.57;;
7997;SDS011;4044;49.814;7.828;2024-03-02T00:16:57;8.53;;;7.67;;
7997;SDS011;4044;49.814;7.828;2024-03-02T00:19:23;9.27;;;7.63;;
7997;SDS011;4044;49.814;7.828;2024-03-02T00:21:49;9.83;;;8.03;;
7997;SDS011;4044;49.814;7.828;2024-03-02T00:24:21;8.17;;;7.07;;
7997;SDS011;4044;49.814;7.828;2024-03-02T00:26:56;8.20;;;7.40;;
7997;SDS011;4044;49.814;7.828;2024-03-02T00:29:22;8.40;;;7.40;;
7997;SDS011;4044;49.814;7.828;2024-03-02T00:31:47;8.40;;;7.60;;
7997;SDS011;4044;49.814;7.828;2024-03-02T00:34:13;8.97;;;7.60;;
7997;SDS011;4044;49.814;7.828;2024-03-02T00:36:41;11.13;;;8.00;;
7997;SDS011;4044;49.814;7.828;2024-03-02T00:39:07;8.77;;;7.60;;
7997;SDS011;4044;49.814;7.828;2024-03-02T00:41:32;11.03;;;8.20;;
7997;SDS011;4044;49.814;7.828;2024-03-02T00:44:05;8.53;;;7.30;;
7997;SDS011;4044;49.814;7.828;2024-03-02T00:46:39;9.73;;;7.37;;
7997;SDS011;4044;49.814;7.828;2024-03-02T00:49:17;9.07;;;8.10;;
7997;SDS011;4044;49.814;7.828;2024-03-02T00:51:48;9.10;;;7.50;;
7997;SDS011;4044;49.814;7.828;2024-03-02T00:54:18;9.07;;;7.30;;
7997;SDS011;4044;49.814;7.828;2024-03-02T00:56:45;8.27;;;7.17;;
7997;SDS011;4044;49.814;7.828;2024-03-02T00:59:12;8.17;;;7.37;;
7997;SDS011;4044;49.814;7.828;2024-03-02T01:01:38;9.50;;;7.77;;
7997;SDS011;4044;49.814;7.828;2024-03-02T01:04:03;10.37;;;8.00;;
7997;SDS011;4044;49.814;7.828;2024-03-02T01:06:29;9.33;;;7.77;;
7997;SDS011;4044;49.814;7.828;2024-03-02T01:08:55;7.90;;;7.13;;
7997;SDS011;4044;49.814;7.828;2024-03-02T01:11:20;8.97;;;7.30;;
7997;SDS011;4044;49.814;7.828;2024-03-02T01:13:49;8.27;;;7.47;;
7997;SDS011;4044;49.814;7.828;2024-03-02T01:16:14;8.90;;;8.00;;
7997;SDS011;4044;49.814;7.828;2024-03-02T01:18:40;8.23;;;7.30;;
7997;SDS011;4044;49.814;7.828;2024-03-02T01:21:06;9.67;;;8.00;;
7997;SDS011;4044;49.814;7.828;2024-03-02T01:23:32;8.70;;;7.90;;
7997;SDS011;4044;49.814;7.828;2024-03-02T01:25:57;9.33;;;7.63;;
7997;SDS011;4044;49.814;7.828;2024-03-02T01:28:23;10.13;;;7.53;;
7997;SDS011;4044;49.814;7.828;2024-03-02T01:30:48;10.63;;;8.40;;
7997;SDS011;4044;49.814;7.828;2024-03-02T01:33:14;8.50;;;7.40;;
7997;SDS011;4044;49.814;7.828;2024-03-02T01:35:40;9.27;;;7.80;;
7997;SDS011;4044;49.814;7.828;2024-03-02T01:38:05;8.83;;;7.97;;
7997;SDS011;4044;49.814;7.828;2024-03-02T01:40:32;8.50;;;7.60;;
7997;SDS011;4044;49.814;7.828;2024-03-02T01:43:01;8.93;;;8.03;;
7997;SDS011;4044;49.814;7.828;2024-03-02T01:45:27;10.87;;;8.03;;
7997;SDS011;4044;49.814;7.828;2024-03-02T01:47:53;10.57;;;8.17;;
7997;SDS011;4044;49.814;7.828;2024-03-02T01:50:26;8.73;;;7.83;;
7997;SDS011;4044;49.814;7.828;2024-03-02T01:52:56;7.83;;;7.03;;
7997;SDS011;4044;49.814;7.828;2024-03-02T01:55:22;8.73;;;6.87;;
7997;SDS011;4044;49.814;7.828;2024-03-02T01:57:48;11.13;;;7.67;;
7997;SDS011;4044;49.814;7.828;2024-03-02T02:00:15;7.77;;;6.97;;
7997;SDS011;4044;49.814;7.828;2024-03-02T02:02:41;8.93;;;7.80;;
7997;SDS011;4044;49.814;7.828;2024-03-02T02:05:07;8.83;;;7.60;;
7997;SDS011;4044;49.814;7.828;2024-03-02T02:07:34;8.53;;;7.50;;
7997;SDS011;4044;49.814;7.828;2024-03-02T02:10:00;8.87;;;7.80;;
7997;SDS011;4044;49.814;7.828;2024-03-02T02:12:26;9.10;;;8.10;;
7997;SDS011;4044;49.814;7.828;2024-03-02T02:14:51;7.60;;;6.80;;
7997;SDS011;4044;49.814;7.828;2024-03-02T02:17:17;8.20;;;7.00;;
7997;SDS011;4044;49.814;7.828;2024-03-02T02:19:42;8.40;;;7.60;;
7997;SDS011;4044;49.814;7.828;2024-03-02T02:22:09;8.20;;;7.40;;
7997;SDS011;4044;49.814;7.828;2024-03-02T02:24:35;7.87;;;6.70;;
7997;SDS011;4044;49.814;7.828;2024-03-02T02:27:01;8.27;;;7.40;;
7997;SDS011;4044;49.814;7.828;2024-03-02T02:29:26;8.80;;;7.00;;
7997;SDS011;4044;49.814;7.828;2024-03-02T02:31:52;8.53;;;7.67;;
7997;SDS011;4044;49.814;7.828;2024-03-02T02:34:17;8.43;;;7.50;;
7997;SDS011;4044;49.814;7.828;2024-03-02T02:36:43;9.63;;;7.30;;
7997;SDS011;4044;49.814;7.828;2024-03-02T02:39:10;7.70;;;6.90;;
7997;SDS011;4044;49.814;7.828;2024-03-02T02:41:39;8.27;;;7.33;;
7997;SDS011;4044;49.814;7.828;2024-03-02T02:44:05;9.77;;;7.27;;
7997;SDS011;4044;49.814;7.828;2024-03-02T02:46:30;8.33;;;7.43;;
7997;SDS011;4044;49.814;7.828;2024-03-02T02:48:56;9.40;;;8.50;;
7997;SDS011;4044;49.814;7.828;2024-03-02T02:51:21;8.20;;;7.37;;
7997;SDS011;4044;49.814;7.828;2024-03-02T02:53:47;7.90;;;7.10;;
7997;SDS011;4044;49.814;7.828;2024-03-02T02:56:12;8.10;;;7.20;;
7997;SDS011;4044;49.814;7.828;2024-03-02T02:58:39;8.03;;;7.30;;
7997;SDS011;4044;49.814;7.828;2024-03-02T03:01:06;8.10;;;6.90;;
7997;SDS011;4044;49.814;7.828;2024-03-02T03:03:32;9.20;;;8.03;;
7997;SDS011;4044;49.814;7.828;2024-03-02T03:05:58;9.60;;;7.97;;
7997;SDS011;4044;49.814;7.828;2024-03-02T03:08:23;8.67;;;7.40;;
7997;SDS011;4044;49.814;7.828;2024-03-02T03:10:49;8.37;;;7.57;;
7997;SDS011;4044;49.814;7.828;2024-03-02T03:13:14;10.70;;;7.87;;
7997;SDS011;4044;49.814;7.828;2024-03-02T03:15:40;8.57;;;7.27;;
7997;SDS011;4044;49.814;7.828;2024-03-02T03:18:05;8.67;;;7.73;;
7997;SDS011;4044;49.814;7.828;2024-03-02T03:20:32;8.57;;;7.60;;
7997;SDS011;4044;49.814;7.828;2024-03-02T03:22:58;8.60;;;7.70;;
7997;SDS011;4044;49.814;7.828;2024-03-02T03:25:24;8.80;;;7.87;;
7997;SDS011;4044;49.814;7.828;2024-03-02T03:27:50;9.33;;;7.93;;
7997;SDS011;4044;49.814;7.828;2024-03-02T03:30:17;8.33;;;7.43;;
7997;SDS011;4044;49.814;7.828;2024-03-02T03:32:43;8.67;;;7.73;;
7997;SDS011;4044;49.814;7.828;2024-03-02T03:35:09;8.93;;;8.03;;
7997;SDS011;4044;49.814;7.828;2024-03-02T03:37:34;8.63;;;7.73;;
7997;SDS011;4044;49.814;7.828;2024-03-02T03:40:00;9.97;;;8.07;;
7997;SDS011;4044;49.814;7.828;2024-03-02T03:42:26;10.00;;;8.50;;
7997;SDS011;4044;49.814;7.828;2024-03-02T03:44:52;9.57;;;8.27;;
7997;SDS011;4044;49.814;7.828;2024-03-02T03:47:18;8.53;;;7.67;;
7997;SDS011;4044;49.814;7.828;2024-03-02T03:49:43;9.93;;;8.50;;
7997;SDS011;4044;49.814;7.828;2024-03-02T03:52:09;8.73;;;7.83;;
7997;SDS011;4044;49.814;7.828;2024-03-02T03:54:34;8.93;;;8.13;;
7997;SDS011;4044;49.814;7.828;2024-03-02T03:57:02;11.20;;;10.00;;
7997;SDS011;4044;49.814;7.828;2024-03-02T03:59:27;9.67;;;8.67;;
7997;SDS011;4044;49.814;7.828;2024-03-02T04:01:53;9.47;;;8.07;;
7997;SDS011;4044;49.814;7.828;2024-03-02T04:04:18;9.70;;;8.37;;
7997;SDS011;4044;49.814;7.828;2024-03-02T04:06:44;9.53;;;8.53;;
7997;SDS011;4044;49.814;7.828;2024-03-02T04:09:09;10.77;;;8.60;;
7997;SDS011;4044;49.814;7.828;2024-03-02T04:11:35;9.40;;;7.83;;
7997;SDS011;4044;49.814;7.828;2024-03-02T04:14:00;9.47;;;8.50;;
7997;SDS011;4044;49.814;7.828;2024-03-02T04:16:26;10.53;;;8.63;;
7997;SDS011;4044;49.814;7.828;2024-03-02T04:18:51;11.50;;;10.23;;
7997;SDS011;4044;49.814;7.828;2024-03-02T04:21:17;11.60;;;10.00;;
7997;SDS011;4044;49.814;7.828;2024-03-02T04:23:42;11.67;;;9.63;;
7997;SDS011;4044;49.814;7.828;2024-03-02T04:26:08;9.03;;;8.13;;
7997;SDS011;4044;49.814;7.828;2024-03-02T04:28:33;10.60;;;9.03;;
7997;SDS011;4044;49.814;7.828;2024-03-02T04:30:59;9.47;;;8.57;;
7997;SDS011;4044;49.814;7.828;2024-03-02T04:33:24;11.17;;;9.13;;
7997;SDS011;4044;49.814;7.828;2024-03-02T04:35:50;9.37;;;8.43;;
7997;SDS011;4044;49.814;7.828;2024-03-02T04:38:15;8.73;;;7.83;;
7997;SDS011;4044;49.814;7.828;2024-03-02T04:40:41;10.47;;;9.37;;
7997;SDS011;4044;49.814;7.828;2024-03-02T04:43:06;11.37;;;8.80;;
7997;SDS011;4044;49.814;7.828;2024-03-02T04:45:34;9.90;;;8.63;;
7997;SDS011;4044;49.814;7.828;2024-03-02T04:47:59;10.67;;;9.27;;
7997;SDS011;4044;49.814;7.828;2024-03-02T04:50:25;9.53;;;8.53;;
7997;SDS011;4044;49.814;7.828;2024-03-02T04:52:50;11.03;;;9.60;;
7997;SDS011;4044;49.814;7.828;2024-03-02T04:55:15;9.87;;;8.90;;
7997;SDS011;4044;49.814;7.828;2024-03-02T04:57:41;10.10;;;8.50;;
7997;SDS011;4044;49.814;7.828;2024-03-02T05:00:07;10.80;;;8.73;;
7997;SDS011;4044;49.814;7.828;2024-03-02T05:02:33;9.37;;;8.07;;
7997;SDS011;4044;49.814;7.828;2024-03-02T05:04:59;8.60;;;7.77;;
7997;SDS011;4044;49.814;7.828;2024-03-02T05:07:25;8.37;;;7.57;;
7997;SDS011;4044;49.814;7.828;2024-03-02T05:09:51;9.93;;;8.93;;
7997;SDS011;4044;49.814;7.828;2024-03-02T05:12:16;10.13;;;8.90;;
7997;SDS011;4044;49.814;7.828;2024-03-02T05:15:05;9.47;;;8.23;;
7997;SDS011;4044;49.814;7.828;2024-03-02T05:17:32;10.63;;;9.17;;
7997;SDS011;4044;49.814;7.828;2024-03-02T05:19:57;9.50;;;8.47;;
7997;SDS011;4044;49.814;7.828;2024-03-02T05:22:23;9.83;;;8.10;;
7997;SDS011;4044;49.814;7.828;2024-03-02T05:24:49;9.53;;;8.10;;
7997;SDS011;4044;49.814;7.828;2024-03-02T05:27:14;10.90;;;8.67;;
7997;SDS011;4044;49.814;7.828;2024-03-02T05:29:40;8.90;;;8.00;;
7997;SDS011;4044;49.814;7.828;2024-03-02T05:32:05;9.40;;;8.03;;
7997;SDS011;4044;49.814;7.828;2024-03-02T05:34:31;8.20;;;7.40;;
7997;SDS011;4044;49.814;7.828;2024-03-02T05:36:57;9.93;;;8.50;;
7997;SDS011;4044;49.814;7.828;2024-03-02T05:39:23;8.70;;;7.80;;
7997;SDS011;4044;49.814;7.828;2024-03-02T05:41:48;9.33;;;8.20;;
7997;SDS011;4044;49.814;7.828;2024-03-02T05:44:14;8.30;;;7.27;;
7997;SDS011;4044;49.814;7.828;2024-03-02T05:46:40;8.47;;;7.53;;
7997;SDS011;4044;49.814;7.828;2024-03-02T05:49:06;8.70;;;7.53;;
7997;SDS011;4044;49.814;7.828;2024-03-02T05:51:33;9.40;;;7.57;;
7997;SDS011;4044;49.814;7.828;2024-03-02T05:53:58;8.50;;;7.60;;
7997;SDS011;4044;49.814;7.828;2024-03-02T05:56:24;8.40;;;7.40;;
7997;SDS011;4044;49.814;7.828;2024-03-02T05:58:49;13.43;;;8.43;;
7997;SDS011;4044;49.814;7.828;2024-03-02T06:01:37;7.90;;;7.10;;
7997;SDS011;4044;49.814;7.828;2024-03-02T06:04:13;9.00;;;8.10;;
7997;SDS011;4044;49.814;7.828;2024-03-02T06:06:39;7.97;;;7.17;;
7997;SDS011;4044;49.814;7.828;2024-03-02T06:09:05;8.30;;;7.47;;
7997;SDS011;4044;49.814;7.828;2024-03-02T06:11:34;8.73;;;7.83;;
7997;SDS011;4044;49.814;7.828;2024-03-02T06:14:01;11.77;;;8.73;;
7997;SDS011;4044;49.814;7.828;2024-03-02T06:16:26;8.60;;;7.70;;
7997;SDS011;4044;49.814;7.828;2024-03-02T06:18:52;8.67;;;7.57;;
7997;SDS011;4044;49.814;7.828;2024-03-02T06:21:19;8.20;;;7.40;;
7997;SDS011;4044;49.814;7.828;2024-03-02T06:23:45;9.43;;;8.43;;
7997;SDS011;4044;49.814;7.828;2024-03-02T06:26:11;8.73;;;7.83;;
7997;SDS011;4044;49.814;7.828;2024-03-02T06:28:37;9.07;;;8.17;;
7997;SDS011;4044;49.814;7.828;2024-03-02T06:31:03;9.80;;;8.13;;
7997;SDS011;4044;49.814;7.828;2024-03-02T06:33:28;8.53;;;7.30;;
7997;SDS011;4044;49.814;7.828;2024-03-02T06:35:54;11.30;;;8.87;;
7997;SDS011;4044;49.814;7.828;2024-03-02T06:38:19;9.57;;;8.23;;
7997;SDS011;4044;49.814;7.828;2024-03-02T06:40:45;10.53;;;8.27;;
7997;SDS011;4044;49.814;7.828;2024-03-02T06:43:11;9.10;;;8.20;;
7997;SDS011;4044;49.814;7.828;2024-03-02T06:45:36;9.43;;;8.53;;
7997;SDS011;4044;49.814;7.828;2024-03-02T06:48:02;9.60;;;8.40;;
7997;SDS011;4044;49.814;7.828;2024-03-02T06:50:27;9.30;;;7.63;;
7997;SDS011;4044;49.814;7.828;2024-03-02T06:52:53;9.63;;;8.60;;
7997;SDS011;4044;49.814;7.828;2024-03-02T06:55:20;9.07;;;8.17;;
7997;SDS011;4044;49.814;7.828;2024-03-02T06:57:46;9.73;;;8.67;;
7997;SDS011;4044;49.814;7.828;2024-03-02T07:00:12;9.67;;;8.67;;
7997;SDS011;4044;49.814;7.828;2024-03-02T07:02:38;9.40;;;8.07;;
7997;SDS011;4044;49.814;7.828;2024-03-02T07:05:06;9.17;;;8.27;;
7997;SDS011;4044;49.814;7.828;2024-03-02T07:07:33;9.77;;;8.77;;
7997;SDS011;4044;49.814;7.828;2024-03-02T07:09:59;10.17;;;9.07;;
7997;SDS011;4044;49.814;7.828;2024-03-02T07:12:25;9.80;;;8.67;;
7997;SDS011;4044;49.814;7.828;2024-03-02T07:14:51;10.67;;;9.57;;
7997;SDS011;4044;49.814;7.828;2024-03-02T07:17:28;10.40;;;8.70;;
7997;SDS011;4044;49.814;7.828;2024-03-02T07:19:54;9.97;;;8.87;;
7997;SDS011;4044;49.814;7.828;2024-03-02T07:22:20;10.40;;;9.07;;
7997;SDS011;4044;49.814;7.828;2024-03-02T07:24:45;10.47;;;9.33;;
7997;SDS011;4044;49.814;7.828;2024-03-02T07:27:11;13.40;;;9.00;;
7997;SDS011;4044;49.814;7.828;2024-03-02T07:29:38;10.40;;;8.93;;
7997;SDS011;4044;49.814;7.828;2024-03-02T07:32:04;10.23;;;8.93;;
7997;SDS011;4044;49.814;7.828;2024-03-02T07:34:30;11.93;;;9.30;;
7997;SDS011;4044;49.814;7.828;2024-03-02T07:36:56;10.73;;;9.63;;
7997;SDS011;4044;49.814;7.828;2024-03-02T07:39:22;11.40;;;10.13;;
7997;SDS011;4044;49.814;7.828;2024-03-02T07:41:47;11.00;;;9.83;;
7997;SDS011;4044;49.814;7.828;2024-03-02T07:44:13;10.40;;;9.27;;
7997;SDS011;4044;49.814;7.828;2024-03-02T07:46:42;11.87;;;9.63;;
7997;SDS011;4044;49.814;7.828;2024-03-02T07:49:08;11.30;;;9.47;;
7997;SDS011;4044;49.814;7.828;2024-03-02T07:51:34;10.90;;;9.67;;
7997;SDS011;4044;49.814;7.828;2024-03-02T07:54:01;12.47;;;9.80;;
7997;SDS011;4044;49.814;7.828;2024-03-02T07:56:26;11.03;;;9.47;;
7997;SDS011;4044;49.814;7.828;2024-03-02T07:58:52;12.50;;;10.23;;
7997;SDS011;4044;49.814;7.828;2024-03-02T08:01:18;11.77;;;10.37;;
7997;SDS011;4044;49.814;7.828;2024-03-02T08:03:43;11.40;;;9.93;;
7997;SDS011;4044;49.814;7.828;2024-03-02T08:06:16;12.93;;;10.33;;
7997;SDS011;4044;49.814;7.828;2024-03-02T08:08:42;12.70;;;11.20;;
7997;SDS011;4044;49.814;7.828;2024-03-02T08:11:08;12.87;;;11.53;;
7997;SDS011;4044;49.814;7.828;2024-03-02T08:13:33;13.13;;;11.00;;
7997;SDS011;4044;49.814;7.828;2024-03-02T08:15:58;12.50;;;11.20;;
7997;SDS011;4044;49.814;7.828;2024-03-02T08:18:24;12.83;;;10.77;;
7997;SDS011;4044;49.814;7.828;2024-03-02T08:20:50;11.97;;;10.77;;
7997;SDS011;4044;49.814;7.828;2024-03-02T08:23:15;12.33;;;10.80;;
7997;SDS011;4044;49.814;7.828;2024-03-02T08:25:42;12.93;;;11.53;;
7997;SDS011;4044;49.814;7.828;2024-03-02T08:28:08;14.50;;;12.63;;
7997;SDS011;4044;49.814;7.828;2024-03-02T08:30:33;14.13;;;12.27;;
7997;SDS011;4044;49.814;7.828;2024-03-02T08:32:59;13.73;;;12.27;;
7997;SDS011;4044;49.814;7.828;2024-03-02T08:35:25;15.13;;;13.53;;
7997;SDS011;4044;49.814;7.828;2024-03-02T08:37:50;15.13;;;13.53;;
7997;SDS011;4044;49.814;7.828;2024-03-02T08:40:16;14.93;;;13.43;;
7997;SDS011;4044;49.814;7.828;2024-03-02T08:42:42;16.73;;;13.80;;
7997;SDS011;4044;49.814;7.828;2024-03-02T08:45:07;15.80;;;13.07;;
7997;SDS011;4044;49.814;7.828;2024-03-02T08:47:33;14.90;;;13.17;;
7997;SDS011;4044;49.814;7.828;2024-03-02T08:49:59;14.13;;;12.57;;
7997;SDS011;4044;49.814;7.828;2024-03-02T08:52:25;17.63;;;14.17;;
7997;SDS011;4044;49.814;7.828;2024-03-02T08:54:51;16.17;;;13.70;;
7997;SDS011;4044;49.814;7.828;2024-03-02T08:57:17;18.73;;;14.47;;
7997;SDS011;4044;49.814;7.828;2024-03-02T08:59:42;16.67;;;14.53;;
7997;SDS011;4044;49.814;7.828;2024-03-02T09:02:09;16.13;;;14.17;;
7997;SDS011;4044;49.814;7.828;2024-03-02T09:04:34;15.87;;;14.17;;
7997;SDS011;4044;49.814;7.828;2024-03-02T09:07:00;15.33;;;13.77;;
7997;SDS011;4044;49.814;7.828;2024-03-02T09:09:26;15.87;;;13.67;;
7997;SDS011;4044;49.814;7.828;2024-03-02T09:11:51;15.53;;;13.60;;
7997;SDS011;4044;49.814;7.828;2024-03-02T09:14:19;15.57;;;13.93;;
7997;SDS011;4044;49.814;7.828;2024-03-02T09:16:45;17.10;;;13.90;;
7997;SDS011;4044;49.814;7.828;2024-03-02T09:19:11;14.00;;;12.60;;
7997;SDS011;4044;49.814;7.828;2024-03-02T09:21:36;13.70;;;12.30;;
7997;SDS011;4044;49.814;7.828;2024-03-02T09:24:02;16.03;;;12.83;;
7997;SDS011;4044;49.814;7.828;2024-03-02T09:26:28;13.30;;;11.90;;
7997;SDS011;4044;49.814;7.828;2024-03-02T09:28:54;13.73;;;12.20;;
7997;SDS011;4044;49.814;7.828;2024-03-02T09:31:19;13.70;;;12.30;;
7997;SDS011;4044;49.814;7.828;2024-03-02T09:33:45;13.90;;;12.33;;
7997;SDS011;4044;49.814;7.828;2024-03-02T09:36:20;13.10;;;11.80;;
7997;SDS011;4044;49.814;7.828;2024-03-02T09:38:47;13.90;;;11.50;;
7997;SDS011;4044;49.814;7.828;2024-03-02T09:41:13;14.90;;;11.70;;
7997;SDS011;4044;49.814;7.828;2024-03-02T09:43:39;14.30;;;11.87;;
7997;SDS011;4044;49.814;7.828;2024-03-02T09:46:06;12.93;;;11.63;;
7997;SDS011;4044;49.814;7.828;2024-03-02T09:48:33;12.77;;;11.40;;
7997;SDS011;4044;49.814;7.828;2024-03-02T09:50:59;12.73;;;11.43;;
7997;SDS011;4044;49.814;7.828;2024-03-02T09:53:27;11.40;;;10.30;;
7997;SDS011;4044;49.814;7.828;2024-03-02T09:55:56;11.80;;;10.60;;
7997;SDS011;4044;49.814;7.828;2024-03-02T09:58:22;11.83;;;10.73;;
7997;SDS011;4044;49.814;7.828;2024-03-02T10:00:47;12.40;;;10.93;;
7997;SDS011;4044;49.814;7.828;2024-03-02T10:03:14;12.13;;;10.93;;
7997;SDS011;4044;49.814;7.828;2024-03-02T10:05:39;11.23;;;10.03;;
7997;SDS011;4044;49.814;7.828;2024-03-02T10:08:05;12.23;;;11.03;;
7997;SDS011;4044;49.814;7.828;2024-03-02T10:10:38;11.67;;;10.53;;
7997;SDS011;4044;49.814;7.828;2024-03-02T10:13:08;11.20;;;10.10;;
7997;SDS011;4044;49.814;7.828;2024-03-02T10:15:34;12.20;;;10.90;;
7997;SDS011;4044;49.814;7.828;2024-03-02T10:18:05;11.73;;;10.63;;
7997;SDS011;4044;49.814;7.828;2024-03-02T10:20:35;12.53;;;10.87;;
7997;SDS011;4044;49.814;7.828;2024-03-02T10:23:13;12.33;;;11.13;;
7997;SDS011;4044;49.814;7.828;2024-03-02T10:25:39;11.53;;;10.43;;
7997;SDS011;4044;49.814;7.828;2024-03-02T10:28:05;11.77;;;10.57;;
7997;SDS011;4044;49.814;7.828;2024-03-02T10:30:32;11.20;;;10.10;;
7997;SDS011;4044;49.814;7.828;2024-03-02T10:32:58;11.20;;;10.10;;
7997;SDS011;4044;49.814;7.828;2024-03-02T10:35:24;18.20;;;14.90;;
7997;SDS011;4044;49.814;7.828;2024-03-02T10:37:51;15.27;;;11.60;;
7997;SDS011;4044;49.814;7.828;2024-03-02T10:40:18;11.13;;;9.97;;
7997;SDS011;4044;49.814;7.828;2024-03-02T10:42:46;9.97;;;9.07;;
7997;SDS011;4044;49.814;7.828;2024-03-02T10:45:12;9.43;;;8.53;;
7997;SDS011;4044;49.814;7.828;2024-03-02T10:47:40;10.70;;;8.63;;
7997;SDS011;4044;49.814;7.828;2024-03-02T10:50:11;10.53;;;9.43;;
7997;SDS011;4044;49.814;7.828;2024-03-02T10:52:37;16.83;;;13.83;;
7997;SDS011;4044;49.814;7.828;2024-03-02T10:55:06;26.83;;;19.90;;
7997;SDS011;4044;49.814;7.828;2024-03-02T10:57:50;15.60;;;12.97;;
7997;SDS011;4044;49.814;7.828;2024-03-02T11:00:18;15.23;;;12.50;;
7997;SDS011;4044;49.814;7.828;2024-03-02T11:02:55;10.03;;;9.03;;
7997;SDS011;4044;49.814;7.828;2024-03-02T11:05:26;10.03;;;8.97;;
7997;SDS011;4044;49.814;7.828;2024-03-02T11:07:56;13.37;;;11.97;;
7997;SDS011;4044;49.814;7.828;2024-03-02T11:10:26;14.33;;;11.90;;
7997;SDS011;4044;49.814;7.828;2024-03-02T11:12:59;9.13;;;8.27;;
7997;SDS011;4044;49.814;7.828;2024-03-02T11:15:27;16.10;;;13.20;;
7997;SDS011;4044;49.814;7.828;2024-03-02T11:17:53;11.03;;;10.10;;
7997;SDS011;4044;49.814;7.828;2024-03-02T11:20:19;9.97;;;9.07;;
7997;SDS011;4044;49.814;7.828;2024-03-02T11:22:46;10.80;;;9.70;;
7997;SDS011;4044;49.814;7.828;2024-03-02T11:25:24;7.83;;;7.13;;
7997;SDS011;4044;49.814;7.828;2024-03-02T11:30:48;7.77;;;7.17;;
7997;SDS011;4044;49.814;7.828;2024-03-02T11:33:14;7.72;;;7.03;;
7997;SDS011;4044;49.814;7.828;2024-03-02T11:35:47;7.28;;;6.60;;
7997;SDS011;4044;49.814;7.828;2024-03-02T11:38:13;7.80;;;7.05;;
7997;SDS011;4044;49.814;7.828;2024-03-02T11:40:39;7.10;;;6.57;;
7997;SDS011;4044;49.814;7.828;2024-03-02T11:43:06;7.55;;;6.95;;
7997;SDS011;4044;49.814;7.828;2024-03-02T11:45:33;7.55;;;6.85;;
7997;SDS011;4044;49.814;7.828;2024-03-02T11:47:58;7.40;;;6.80;;
7997;SDS011;4044;49.814;7.828;2024-03-02T11:53:03;7.75;;;7.00;;
7997;SDS011;4044;49.814;7.828;2024-03-02T11:55:38;8.18;;;7.43;;
7997;SDS011;4044;49.814;7.828;2024-03-02T11:58:05;7.13;;;6.53;;
7997;SDS011;4044;49.814;7.828;2024-03-02T12:00:32;7.43;;;6.75;;
7997;SDS011;4044;49.814;7.828;2024-03-02T12:03:01;7.10;;;6.38;;
7997;SDS011;4044;49.814;7.828;2024-03-02T12:05:27;7.88;;;7.07;;
7997;SDS011;4044;49.814;7.828;2024-03-02T12:07:57;7.18;;;6.57;;
7997;SDS011;4044;49.814;7.828;2024-03-02T12:10:32;7.60;;;6.40;;
7997;SDS011;4044;49.814;7.828;2024-03-02T12:12:59;7.00;;;6.40;;
7997;SDS011;4044;49.814;7.828;2024-03-02T12:15:25;6.53;;;5.97;;
7997;SDS011;4044;49.814;7.828;2024-03-02T12:17:52;7.35;;;6.05;;
7997;SDS011;4044;49.814;7.828;2024-03-02T12:20:22;6.70;;;5.82;;
7997;SDS011;4044;49.814;7.828;2024-03-02T12:22:53;5.30;;;4.90;;
7997;SDS011;4044;49.814;7.828;2024-03-02T12:25:19;6.50;;;5.88;;
7997;SDS011;4044;49.814;7.828;2024-03-02T12:27:46;5.90;;;5.40;;
7997;SDS011;4044;49.814;7.828;2024-03-02T12:30:16;6.13;;;5.63;;
7997;SDS011;4044;49.814;7.828;2024-03-02T12:32:42;5.75;;;5.20;;
7997;SDS011;4044;49.814;7.828;2024-03-02T12:35:09;5.78;;;5.28;;
7997;SDS011;4044;49.814;7.828;2024-03-02T12:37:43;5.57;;;5.18;;
7997;SDS011;4044;49.814;7.828;2024-03-02T12:40:15;6.53;;;6.03;;
7997;SDS011;4044;49.814;7.828;2024-03-02T12:42:43;6.20;;;5.70;;
7997;SDS011;4044;49.814;7.828;2024-03-02T12:45:09;5.53;;;5.03;;
7997;SDS011;4044;49.814;7.828;2024-03-02T12:47:35;6.13;;;5.63;;
7997;SDS011;4044;49.814;7.828;2024-03-02T12:50:02;5.72;;;5.25;;
7997;SDS011;4044;49.814;7.828;2024-03-02T12:52:28;5.03;;;4.70;;
7997;SDS011;4044;49.814;7.828;2024-03-02T12:54:55;5.55;;;5.13;;
7997;SDS011;4044;49.814;7.828;2024-03-02T12:57:26;6.00;;;5.40;;
7997;SDS011;4044;49.814;7.828;2024-03-02T12:59:57;5.50;;;4.80;;
7997;SDS011;4044;49.814;7.828;2024-03-02T13:02:27;4.80;;;4.40;;
7997;SDS011;4044;49.814;7.828;2024-03-02T13:04:57;4.82;;;4.30;;
7997;SDS011;4044;49.814;7.828;2024-03-02T13:07:23;5.43;;;4.90;;
7997;SDS011;4044;49.814;7.828;2024-03-02T13:09:49;5.53;;;5.03;;
7997;SDS011;4044;49.814;7.828;2024-03-02T13:12:15;4.57;;;4.18;;
7997;SDS011;4044;49.814;7.828;2024-03-02T13:14:41;4.03;;;3.72;;
7997;SDS011;4044;49.814;7.828;2024-03-02T13:17:08;4.20;;;3.90;;
7997;SDS011;4044;49.814;7.828;2024-03-02T13:19:34;4.47;;;4.07;;
7997;SDS011;4044;49.814;7.828;2024-03-02T13:22:00;3.85;;;3.55;;
7997;SDS011;4044;49.814;7.828;2024-03-02T13:24:27;4.15;;;3.75;;
7997;SDS011;4044;49.814;7.828;2024-03-02T13:26:54;3.72;;;3.42;;
7997;SDS011;4044;49.814;7.828;2024-03-02T13:29:22;4.30;;;3.70;;
7997;SDS011;4044;49.814;7.828;2024-03-02T13:31:47;3.55;;;3.25;;
7997;SDS011;4044;49.814;7.828;2024-03-02T13:34:13;3.10;;;2.90;;
7997;SDS011;4044;49.814;7.828;2024-03-02T13:36:39;3.03;;;2.70;;
7997;SDS011;4044;49.814;7.828;2024-03-02T13:39:04;2.97;;;2.70;;
7997;SDS011;4044;49.814;7.828;2024-03-02T13:41:31;2.92;;;2.72;;
7997;SDS011;4044;49.814;7.828;2024-03-02T13:43:57;2.70;;;2.50;;
7997;SDS011;4044;49.814;7.828;2024-03-02T13:46:26;2.40;;;2.20;;
7997;SDS011;4044;49.814;7.828;2024-03-02T13:48:51;2.33;;;2.13;;
7997;SDS011;4044;49.814;7.828;2024-03-02T13:51:17;2.30;;;2.15;;
7997;SDS011;4044;49.814;7.828;2024-03-02T13:53:42;2.20;;;2.10;;
7997;SDS011;4044;49.814;7.828;2024-03-02T13:56:08;2.60;;;2.40;;
7997;SDS011;4044;49.814;7.828;2024-03-02T13:58:34;2.10;;;2.00;;
7997;SDS011;4044;49.814;7.828;2024-03-02T14:00:59;2.60;;;2.42;;
7997;SDS011;4044;49.814;7.828;2024-03-02T14:03:26;2.60;;;2.40;;
7997;SDS011;4044;49.814;7.828;2024-03-02T14:05:52;3.28;;;2.53;;
7997;SDS011;4044;49.814;7.828;2024-03-02T14:08:18;2.22;;;2.10;;
7997;SDS011;4044;49.814;7.828;2024-03-02T14:10:44;2.47;;;2.00;;
7997;SDS011;4044;49.814;7.828;2024-03-02T14:13:09;2.17;;;2.08;;
7997;SDS011;4044;49.814;7.828;2024-03-02T14:15:35;2.50;;;2.30;;
7997;SDS011;4044;49.814;7.828;2024-03-02T14:18:03;2.15;;;2.05;;
7997;SDS011;4044;49.814;7.828;2024-03-02T14:20:29;1.60;;;1.50;;
7997;SDS011;4044;49.814;7.828;2024-03-02T14:22:55;2.15;;;1.95;;
7997;SDS011;4044;49.814;7.828;2024-03-02T14:25:20;2.00;;;1.90;;
7997;SDS011;4044;49.814;7.828;2024-03-02T14:27:46;2.38;;;2.17;;
7997;SDS011;4044;49.814;7.828;2024-03-02T14:30:12;2.05;;;1.90;;
7997;SDS011;4044;49.814;7.828;2024-03-02T14:32:38;1.80;;;1.70;;
7997;SDS011;4044;49.814;7.828;2024-03-02T14:35:03;2.10;;;1.90;;
7997;SDS011;4044;49.814;7.828;2024-03-02T14:37:29;2.00;;;1.90;;
7997;SDS011;4044;49.814;7.828;2024-03-02T14:39:55;1.85;;;1.75;;
7997;SDS011;4044;49.814;7.828;2024-03-02T14:42:21;2.15;;;2.05;;
7997;SDS011;4044;49.814;7.828;2024-03-02T14:44:47;2.03;;;1.92;;
7997;SDS011;4044;49.814;7.828;2024-03-02T14:47:12;1.88;;;1.67;;
7997;SDS011;4044;49.814;7.828;2024-03-02T14:49:38;1.77;;;1.67;;
7997;SDS011;4044;49.814;7.828;2024-03-02T14:52:05;1.50;;;1.40;;
7997;SDS011;4044;49.814;7.828;2024-03-02T14:54:31;1.85;;;1.75;;
7997;SDS011;4044;49.814;7.828;2024-03-02T14:56:56;1.50;;;1.50;;
7997;SDS011;4044;49.814;7.828;2024-03-02T14:59:22;1.60;;;1.50;;
7997;SDS011;4044;49.814;7.828;2024-03-02T15:01:47;1.67;;;1.58;;
7997;SDS011;4044;49.814;7.828;2024-03-02T15:04:13;1.30;;;1.30;;
7997;SDS011;4044;49.814;7.828;2024-03-02T15:06:41;1.50;;;1.40;;
7997;SDS011;4044;49.814;7.828;2024-03-02T15:09:07;2.05;;;1.48;;
7997;SDS011;4044;49.814;7.828;2024-03-02T15:11:33;1.05;;;1.00;;